sensor_id;sensor_type;location;lat;lon;timestamp;temperature;humidity
45643;DHT22;31358;46.008;11.144;2023-02-01T00:02:09;3.40;78.30
45643;DHT22;31358;46.008;11.144;2023-02-01T00:04:34;3.40;78.10
45643;DHT22;31358;46.008;11.144;2023-02-01T00:07:00;3.60;77.40
45643;DHT22;31358;46.008;11.144;2023-02-01T00:09:26;3.50;77.70
45643;DHT22;31358;46.008;11.144;2023-02-01T00:11:52;3.20;78.70
45643;DHT22;31358;46.008;11.144;2023-02-01T00:14:18;3.00;79.10
45643;DHT22;31358;46.008;11.144;2023-02-01T00:16:43;3.10;79.00
45643;DHT22;31358;46.008;11.144;2023-02-01T00:19:14;2.80;80.90
45643;DHT22;31358;46.008;11.144;2023-02-01T00:21:41;2.80;80.80
45643;DHT22;31358;46.008;11.144;2023-02-01T00:24:08;3.10;79.10
45643;DHT22;31358;46.008;11.144;2023-02-01T00:26:42;3.30;78.20
45643;DHT22;31358;46.008;11.144;2023-02-01T00:29:14;3.40;78.20
45643;DHT22;31358;46.008;11.144;2023-02-01T00:31:40;3.40;78.20
45643;DHT22;31358;46.008;11.144;2023-02-01T00:34:06;3.20;79.20
45643;DHT22;31358;46.008;11.144;2023-02-01T00:36:31;3.10;79.90
45643;DHT22;31358;46.008;11.144;2023-02-01T00:38:57;3.20;78.40
45643;DHT22;31358;46.008;11.144;2023-02-01T00:41:23;3.30;78.00
45643;DHT22;31358;46.008;11.144;2023-02-01T00:43:49;3.30;78.90
45643;DHT22;31358;46.008;11.144;2023-02-01T00:46:17;3.20;78.00
45643;DHT22;31358;46.008;11.144;2023-02-01T00:48:43;3.20;78.10
45643;DHT22;31358;46.008;11.144;2023-02-01T00:51:12;3.20;79.60
45643;DHT22;31358;46.008;11.144;2023-02-01T00:53:38;3.20;79.00
45643;DHT22;31358;46.008;11.144;2023-02-01T00:56:04;3.20;78.70
45643;DHT22;31358;46.008;11.144;2023-02-01T00:58:30;3.20;79.10
45643;DHT22;31358;46.008;11.144;2023-02-01T01:01:09;3.10;79.50
45643;DHT22;31358;46.008;11.144;2023-02-01T01:03:37;3.00;79.80
45643;DHT22;31358;46.008;11.144;2023-02-01T01:06:09;3.00;80.00
45643;DHT22;31358;46.008;11.144;2023-02-01T01:08:36;3.00;80.50
45643;DHT22;31358;46.008;11.144;2023-02-01T01:11:08;3.30;78.60
45643;DHT22;31358;46.008;11.144;2023-02-01T01:13:34;3.10;80.40
45643;DHT22;31358;46.008;11.144;2023-02-01T01:16:01;3.00;80.70
45643;DHT22;31358;46.008;11.144;2023-02-01T01:18:28;3.00;80.70
45643;DHT22;31358;46.008;11.144;2023-02-01T01:20:54;2.80;81.20
45643;DHT22;31358;46.008;11.144;2023-02-01T01:23:20;2.60;82.50
45643;DHT22;31358;46.008;11.144;2023-02-01T01:25:46;2.60;82.50
45643;DHT22;31358;46.008;11.144;2023-02-01T01:28:11;2.20;84.20
45643;DHT22;31358;46.008;11.144;2023-02-01T01:30:37;2.10;84.30
45643;DHT22;31358;46.008;11.144;2023-02-01T01:33:02;2.10;83.90
45643;DHT22;31358;46.008;11.144;2023-02-01T01:35:29;2.20;83.40
45643;DHT22;31358;46.008;11.144;2023-02-01T01:37:55;2.30;83.20
45643;DHT22;31358;46.008;11.144;2023-02-01T01:40:21;2.30;83.00
45643;DHT22;31358;46.008;11.144;2023-02-01T01:42:47;2.40;82.20
45643;DHT22;31358;46.008;11.144;2023-02-01T01:47:50;2.60;81.00
45643;DHT22;31358;46.008;11.144;2023-02-01T01:50:21;2.60;81.10
45643;DHT22;31358;46.008;11.144;2023-02-01T01:52:49;2.50;82.10
45643;DHT22;31358;46.008;11.144;2023-02-01T01:55:17;2.50;81.10
45643;DHT22;31358;46.008;11.144;2023-02-01T01:57:48;2.30;82.50
45643;DHT22;31358;46.008;11.144;2023-02-01T02:00:17;2.20;82.40
45643;DHT22;31358;46.008;11.144;2023-02-01T02:02:46;2.10;84.80
45643;DHT22;31358;46.008;11.144;2023-02-01T02:05:12;2.10;83.20
45643;DHT22;31358;46.008;11.144;2023-02-01T02:07:45;2.10;82.50
45643;DHT22;31358;46.008;11.144;2023-02-01T02:10:12;2.30;81.90
45643;DHT22;31358;46.008;11.144;2023-02-01T02:12:41;2.30;81.80
45643;DHT22;31358;46.008;11.144;2023-02-01T02:15:12;2.50;81.10
45643;DHT22;31358;46.008;11.144;2023-02-01T02:18:01;2.30;81.10
45643;DHT22;31358;46.008;11.144;2023-02-01T02:34:52;2.70;80.30
45643;DHT22;31358;46.008;11.144;2023-02-01T02:37:46;2.60;80.50
45643;DHT22;31358;46.008;11.144;2023-02-01T02:43:21;2.80;80.20
45643;DHT22;31358;46.008;11.144;2023-02-01T02:46:16;2.60;81.60
45643;DHT22;31358;46.008;11.144;2023-02-01T02:49:36;2.60;81.10
45643;DHT22;31358;46.008;11.144;2023-02-01T02:52:16;2.50;81.70
45643;DHT22;31358;46.008;11.144;2023-02-01T02:55:03;2.50;81.40
45643;DHT22;31358;46.008;11.144;2023-02-01T02:57:38;2.70;80.90
45643;DHT22;31358;46.008;11.144;2023-02-01T03:00:28;2.50;81.30
45643;DHT22;31358;46.008;11.144;2023-02-01T03:03:13;2.60;81.20
45643;DHT22;31358;46.008;11.144;2023-02-01T03:05:58;2.80;80.30
45643;DHT22;31358;46.008;11.144;2023-02-01T03:08:26;2.80;80.40
45643;DHT22;31358;46.008;11.144;2023-02-01T03:10:57;2.50;81.70
45643;DHT22;31358;46.008;11.144;2023-02-01T03:13:31;2.30;81.70
45643;DHT22;31358;46.008;11.144;2023-02-01T03:21:24;2.10;83.70
45643;DHT22;31358;46.008;11.144;2023-02-01T03:23:50;2.00;84.10
45643;DHT22;31358;46.008;11.144;2023-02-01T03:26:19;2.00;83.10
45643;DHT22;31358;46.008;11.144;2023-02-01T03:28:55;1.90;84.30
45643;DHT22;31358;46.008;11.144;2023-02-01T03:31:22;1.90;85.70
45643;DHT22;31358;46.008;11.144;2023-02-01T03:33:48;1.80;84.50
45643;DHT22;31358;46.008;11.144;2023-02-01T03:43:55;1.60;84.60
45643;DHT22;31358;46.008;11.144;2023-02-01T03:46:35;1.70;83.60
45643;DHT22;31358;46.008;11.144;2023-02-01T03:49:06;1.60;84.40
45643;DHT22;31358;46.008;11.144;2023-02-01T03:51:34;1.70;84.50
45643;DHT22;31358;46.008;11.144;2023-02-01T03:54:02;2.00;82.90
45643;DHT22;31358;46.008;11.144;2023-02-01T03:56:29;2.00;83.30
45643;DHT22;31358;46.008;11.144;2023-02-01T03:58:56;2.00;84.40
45643;DHT22;31358;46.008;11.144;2023-02-01T04:01:30;2.30;83.60
45643;DHT22;31358;46.008;11.144;2023-02-01T04:03:56;2.50;82.10
45643;DHT22;31358;46.008;11.144;2023-02-01T04:06:23;2.40;82.50
45643;DHT22;31358;46.008;11.144;2023-02-01T04:08:50;2.40;83.10
45643;DHT22;31358;46.008;11.144;2023-02-01T04:11:16;2.00;84.40
45643;DHT22;31358;46.008;11.144;2023-02-01T04:13:42;1.80;84.30
45643;DHT22;31358;46.008;11.144;2023-02-01T04:16:07;1.60;85.10
45643;DHT22;31358;46.008;11.144;2023-02-01T04:18:33;1.50;87.70
45643;DHT22;31358;46.008;11.144;2023-02-01T04:21:00;1.40;86.90
45643;DHT22;31358;46.008;11.144;2023-02-01T04:23:27;1.50;86.40
45643;DHT22;31358;46.008;11.144;2023-02-01T04:25:53;1.60;86.00
45643;DHT22;31358;46.008;11.144;2023-02-01T04:28:19;1.50;86.80
45643;DHT22;31358;46.008;11.144;2023-02-01T04:30:45;1.60;84.30
45643;DHT22;31358;46.008;11.144;2023-02-01T04:33:11;1.60;84.00
45643;DHT22;31358;46.008;11.144;2023-02-01T04:35:39;1.60;85.80
45643;DHT22;31358;46.008;11.144;2023-02-01T04:38:05;1.80;85.10
45643;DHT22;31358;46.008;11.144;2023-02-01T04:40:32;1.70;85.80
45643;DHT22;31358;46.008;11.144;2023-02-01T04:43:03;1.60;84.90
45643;DHT22;31358;46.008;11.144;2023-02-01T04:45:29;1.50;85.60
45643;DHT22;31358;46.008;11.144;2023-02-01T04:47:55;1.30;86.60
45643;DHT22;31358;46.008;11.144;2023-02-01T04:50:21;1.30;85.90
45643;DHT22;31358;46.008;11.144;2023-02-01T04:52:46;1.30;87.60
45643;DHT22;31358;46.008;11.144;2023-02-01T04:55:12;1.10;87.90
45643;DHT22;31358;46.008;11.144;2023-02-01T04:57:39;1.20;88.10
45643;DHT22;31358;46.008;11.144;2023-02-01T05:00:07;1.10;87.80
45643;DHT22;31358;46.008;11.144;2023-02-01T05:02:33;1.30;88.10
45643;DHT22;31358;46.008;11.144;2023-02-01T05:05:00;1.30;87.40
45643;DHT22;31358;46.008;11.144;2023-02-01T05:07:26;1.10;87.60
45643;DHT22;31358;46.008;11.144;2023-02-01T05:09:51;1.00;88.50
45643;DHT22;31358;46.008;11.144;2023-02-01T05:12:17;1.20;87.50
45643;DHT22;31358;46.008;11.144;2023-02-01T05:15:01;1.10;87.50
45643;DHT22;31358;46.008;11.144;2023-02-01T05:17:27;1.20;87.80
45643;DHT22;31358;46.008;11.144;2023-02-01T05:19:52;1.50;87.30
45643;DHT22;31358;46.008;11.144;2023-02-01T05:22:18;1.50;87.50
45643;DHT22;31358;46.008;11.144;2023-02-01T05:24:44;1.50;87.70
45643;DHT22;31358;46.008;11.144;2023-02-01T05:27:10;1.60;85.30
45643;DHT22;31358;46.008;11.144;2023-02-01T05:29:35;1.70;86.30
45643;DHT22;31358;46.008;11.144;2023-02-01T05:32:01;1.60;87.00
45643;DHT22;31358;46.008;11.144;2023-02-01T05:34:27;1.80;86.50
45643;DHT22;31358;46.008;11.144;2023-02-01T05:36:52;1.80;86.00
45643;DHT22;31358;46.008;11.144;2023-02-01T05:39:18;1.90;84.00
45643;DHT22;31358;46.008;11.144;2023-02-01T05:41:44;1.90;84.20
45643;DHT22;31358;46.008;11.144;2023-02-01T05:44:10;1.80;85.10
45643;DHT22;31358;46.008;11.144;2023-02-01T05:46:36;1.60;85.40
45643;DHT22;31358;46.008;11.144;2023-02-01T05:49:03;1.40;86.10
45643;DHT22;31358;46.008;11.144;2023-02-01T05:51:29;1.30;86.40
45643;DHT22;31358;46.008;11.144;2023-02-01T05:53:54;1.30;87.60
45643;DHT22;31358;46.008;11.144;2023-02-01T05:56:20;1.40;88.00
45643;DHT22;31358;46.008;11.144;2023-02-01T05:58:46;1.30;87.50
45643;DHT22;31358;46.008;11.144;2023-02-01T06:01:11;1.60;87.50
45643;DHT22;31358;46.008;11.144;2023-02-01T06:03:37;1.50;87.40
45643;DHT22;31358;46.008;11.144;2023-02-01T06:06:03;1.40;89.40
45643;DHT22;31358;46.008;11.144;2023-02-01T06:08:29;1.20;90.70
45643;DHT22;31358;46.008;11.144;2023-02-01T06:11:03;1.00;90.20
45643;DHT22;31358;46.008;11.144;2023-02-01T06:13:29;0.90;90.20
45643;DHT22;31358;46.008;11.144;2023-02-01T06:15:55;0.70;90.30
45643;DHT22;31358;46.008;11.144;2023-02-01T06:18:23;0.70;89.70
45643;DHT22;31358;46.008;11.144;2023-02-01T06:20:55;0.60;90.10
45643;DHT22;31358;46.008;11.144;2023-02-01T06:23:21;0.70;90.30
45643;DHT22;31358;46.008;11.144;2023-02-01T06:25:57;1.20;90.10
45643;DHT22;31358;46.008;11.144;2023-02-01T06:28:23;1.50;87.00
45643;DHT22;31358;46.008;11.144;2023-02-01T06:30:49;1.60;86.70
45643;DHT22;31358;46.008;11.144;2023-02-01T06:33:15;1.50;87.10
45643;DHT22;31358;46.008;11.144;2023-02-01T06:35:43;1.50;87.30
45643;DHT22;31358;46.008;11.144;2023-02-01T06:38:13;1.30;89.10
45643;DHT22;31358;46.008;11.144;2023-02-01T06:40:39;1.30;90.20
45643;DHT22;31358;46.008;11.144;2023-02-01T06:43:06;1.10;88.70
45643;DHT22;31358;46.008;11.144;2023-02-01T06:45:32;0.90;90.30
45643;DHT22;31358;46.008;11.144;2023-02-01T06:47:59;0.90;90.60
45643;DHT22;31358;46.008;11.144;2023-02-01T06:50:26;0.60;90.50
45643;DHT22;31358;46.008;11.144;2023-02-01T06:52:52;1.00;90.50
45643;DHT22;31358;46.008;11.144;2023-02-01T06:55:17;1.40;88.30
45643;DHT22;31358;46.008;11.144;2023-02-01T06:57:43;1.50;87.80
45643;DHT22;31358;46.008;11.144;2023-02-01T07:00:09;1.40;88.10
45643;DHT22;31358;46.008;11.144;2023-02-01T07:02:35;1.40;88.00
45643;DHT22;31358;46.008;11.144;2023-02-01T07:05:00;1.40;88.70
45643;DHT22;31358;46.008;11.144;2023-02-01T07:07:26;1.20;90.30
45643;DHT22;31358;46.008;11.144;2023-02-01T07:09:51;1.10;89.80
45643;DHT22;31358;46.008;11.144;2023-02-01T07:12:19;1.20;90.00
45643;DHT22;31358;46.008;11.144;2023-02-01T07:14:44;1.20;90.40
45643;DHT22;31358;46.008;11.144;2023-02-01T07:17:10;1.30;89.90
45643;DHT22;31358;46.008;11.144;2023-02-01T07:19:36;1.50;88.90
45643;DHT22;31358;46.008;11.144;2023-02-01T07:22:01;1.40;90.10
45643;DHT22;31358;46.008;11.144;2023-02-01T07:24:27;1.30;88.70
45643;DHT22;31358;46.008;11.144;2023-02-01T07:26:52;1.30;88.70
45643;DHT22;31358;46.008;11.144;2023-02-01T07:29:18;1.30;88.70
45643;DHT22;31358;46.008;11.144;2023-02-01T07:31:45;1.20;90.40
45643;DHT22;31358;46.008;11.144;2023-02-01T07:34:10;1.40;89.20
45643;DHT22;31358;46.008;11.144;2023-02-01T07:36:36;1.30;89.50
45643;DHT22;31358;46.008;11.144;2023-02-01T07:39:05;1.30;90.10
45643;DHT22;31358;46.008;11.144;2023-02-01T07:41:31;1.10;90.90
45643;DHT22;31358;46.008;11.144;2023-02-01T07:43:56;1.20;90.40
45643;DHT22;31358;46.008;11.144;2023-02-01T07:46:22;1.40;90.10
45643;DHT22;31358;46.008;11.144;2023-02-01T07:48:48;1.50;90.10
45643;DHT22;31358;46.008;11.144;2023-02-01T07:51:15;1.60;89.00
45643;DHT22;31358;46.008;11.144;2023-02-01T07:53:42;1.60;89.70
45643;DHT22;31358;46.008;11.144;2023-02-01T07:56:16;1.70;89.20
45643;DHT22;31358;46.008;11.144;2023-02-01T07:58:42;1.20;90.90
45643;DHT22;31358;46.008;11.144;2023-02-01T08:01:19;1.10;91.60
45643;DHT22;31358;46.008;11.144;2023-02-01T08:03:49;1.00;91.70
45643;DHT22;31358;46.008;11.144;2023-02-01T08:06:15;1.20;90.30
45643;DHT22;31358;46.008;11.144;2023-02-01T08:08:41;1.40;90.10
45643;DHT22;31358;46.008;11.144;2023-02-01T08:11:10;1.50;90.40
45643;DHT22;31358;46.008;11.144;2023-02-01T08:13:36;1.30;91.10
45643;DHT22;31358;46.008;11.144;2023-02-01T08:16:03;0.80;91.40
45643;DHT22;31358;46.008;11.144;2023-02-01T08:18:30;0.80;92.00
45643;DHT22;31358;46.008;11.144;2023-02-01T08:20:56;0.60;92.20
45643;DHT22;31358;46.008;11.144;2023-02-01T08:23:22;0.60;92.30
45643;DHT22;31358;46.008;11.144;2023-02-01T08:25:48;0.70;92.60
45643;DHT22;31358;46.008;11.144;2023-02-01T08:28:14;0.70;92.70
45643;DHT22;31358;46.008;11.144;2023-02-01T08:30:40;0.60;93.40
45643;DHT22;31358;46.008;11.144;2023-02-01T08:33:08;0.80;93.20
45643;DHT22;31358;46.008;11.144;2023-02-01T08:35:37;0.80;93.20
45643;DHT22;31358;46.008;11.144;2023-02-01T08:38:03;0.70;93.10
45643;DHT22;31358;46.008;11.144;2023-02-01T08:40:29;0.80;92.00
45643;DHT22;31358;46.008;11.144;2023-02-01T08:42:55;1.00;92.30
45643;DHT22;31358;46.008;11.144;2023-02-01T08:45:24;1.10;91.90
45643;DHT22;31358;46.008;11.144;2023-02-01T08:47:51;1.20;92.20
45643;DHT22;31358;46.008;11.144;2023-02-01T08:50:18;1.10;92.70
45643;DHT22;31358;46.008;11.144;2023-02-01T08:52:44;1.10;92.80
45643;DHT22;31358;46.008;11.144;2023-02-01T08:55:10;1.30;91.30
45643;DHT22;31358;46.008;11.144;2023-02-01T08:57:36;1.50;91.00
45643;DHT22;31358;46.008;11.144;2023-02-01T09:00:03;1.50;91.00
45643;DHT22;31358;46.008;11.144;2023-02-01T09:02:28;1.50;91.10
45643;DHT22;31358;46.008;11.144;2023-02-01T09:04:55;1.50;91.30
45643;DHT22;31358;46.008;11.144;2023-02-01T09:07:21;1.50;92.00
45643;DHT22;31358;46.008;11.144;2023-02-01T09:09:47;1.50;92.50
45643;DHT22;31358;46.008;11.144;2023-02-01T09:12:13;1.30;92.10
45643;DHT22;31358;46.008;11.144;2023-02-01T09:14:38;1.50;90.70
45643;DHT22;31358;46.008;11.144;2023-02-01T09:17:04;1.80;90.10
45643;DHT22;31358;46.008;11.144;2023-02-01T09:19:31;1.90;90.20
45643;DHT22;31358;46.008;11.144;2023-02-01T09:21:57;2.00;90.30
45643;DHT22;31358;46.008;11.144;2023-02-01T09:24:22;1.90;90.20
45643;DHT22;31358;46.008;11.144;2023-02-01T09:26:48;2.00;90.20
45643;DHT22;31358;46.008;11.144;2023-02-01T09:29:14;2.00;90.20
45643;DHT22;31358;46.008;11.144;2023-02-01T09:31:40;2.10;90.50
45643;DHT22;31358;46.008;11.144;2023-02-01T09:34:06;1.90;90.70
45643;DHT22;31358;46.008;11.144;2023-02-01T09:36:33;1.70;91.00
45643;DHT22;31358;46.008;11.144;2023-02-01T09:38:59;1.70;91.90
45643;DHT22;31358;46.008;11.144;2023-02-01T09:47:17;2.80;89.50
45643;DHT22;31358;46.008;11.144;2023-02-01T09:52:48;2.90;90.00
45643;DHT22;31358;46.008;11.144;2023-02-01T09:55:20;2.80;90.20
45643;DHT22;31358;46.008;11.144;2023-02-01T09:57:54;2.60;90.70
45643;DHT22;31358;46.008;11.144;2023-02-01T10:00:27;2.70;90.90
45643;DHT22;31358;46.008;11.144;2023-02-01T10:02:54;2.70;90.90
45643;DHT22;31358;46.008;11.144;2023-02-01T10:05:50;2.70;91.60
45643;DHT22;31358;46.008;11.144;2023-02-01T10:10:59;3.10;91.20
45643;DHT22;31358;46.008;11.144;2023-02-01T10:13:48;3.50;88.40
45643;DHT22;31358;46.008;11.144;2023-02-01T10:16:33;3.60;90.80
45643;DHT22;31358;46.008;11.144;2023-02-01T10:21:56;3.50;91.20
45643;DHT22;31358;46.008;11.144;2023-02-01T10:24:42;3.60;91.10
45643;DHT22;31358;46.008;11.144;2023-02-01T10:27:20;3.60;90.60
45643;DHT22;31358;46.008;11.144;2023-02-01T10:29:51;3.70;91.00
45643;DHT22;31358;46.008;11.144;2023-02-01T10:32:21;3.80;90.20
45643;DHT22;31358;46.008;11.144;2023-02-01T10:34:59;3.80;89.40
45643;DHT22;31358;46.008;11.144;2023-02-01T10:37:32;4.00;90.00
45643;DHT22;31358;46.008;11.144;2023-02-01T10:40:22;4.00;90.10
45643;DHT22;31358;46.008;11.144;2023-02-01T10:42:51;4.10;89.90
45643;DHT22;31358;46.008;11.144;2023-02-01T10:45:20;4.20;89.90
45643;DHT22;31358;46.008;11.144;2023-02-01T10:47:49;4.60;90.60
45643;DHT22;31358;46.008;11.144;2023-02-01T10:53:48;4.80;88.50
45643;DHT22;31358;46.008;11.144;2023-02-01T10:56:22;4.90;89.00
45643;DHT22;31358;46.008;11.144;2023-02-01T10:58:49;5.10;88.30
45643;DHT22;31358;46.008;11.144;2023-02-01T11:04:03;5.20;87.20
45643;DHT22;31358;46.008;11.144;2023-02-01T11:06:41;5.20;87.80
45643;DHT22;31358;46.008;11.144;2023-02-01T11:11:55;5.20;86.90
45643;DHT22;31358;46.008;11.144;2023-02-01T11:16:57;5.50;87.50
45643;DHT22;31358;46.008;11.144;2023-02-01T11:19:23;5.40;86.40
45643;DHT22;31358;46.008;11.144;2023-02-01T11:21:56;5.40;86.20
45643;DHT22;31358;46.008;11.144;2023-02-01T11:24:35;5.60;87.00
45643;DHT22;31358;46.008;11.144;2023-02-01T11:27:06;5.80;87.20
45643;DHT22;31358;46.008;11.144;2023-02-01T11:29:41;5.80;86.00
45643;DHT22;31358;46.008;11.144;2023-02-01T11:32:09;5.90;85.50
45643;DHT22;31358;46.008;11.144;2023-02-01T11:37:27;6.00;85.90
45643;DHT22;31358;46.008;11.144;2023-02-01T11:40:03;6.20;85.80
45643;DHT22;31358;46.008;11.144;2023-02-01T11:42:29;6.30;85.60
45643;DHT22;31358;46.008;11.144;2023-02-01T11:45:27;6.30;84.60
45643;DHT22;31358;46.008;11.144;2023-02-01T11:47:54;6.40;84.00
45643;DHT22;31358;46.008;11.144;2023-02-01T11:50:38;6.60;84.20
45643;DHT22;31358;46.008;11.144;2023-02-01T11:53:31;6.80;86.10
45643;DHT22;31358;46.008;11.144;2023-02-01T12:01:35;7.20;85.00
45643;DHT22;31358;46.008;11.144;2023-02-01T12:07:30;7.20;83.40
45643;DHT22;31358;46.008;11.144;2023-02-01T12:13:13;7.20;83.10
45643;DHT22;31358;46.008;11.144;2023-02-01T12:18:34;7.20;82.20
45643;DHT22;31358;46.008;11.144;2023-02-01T12:38:46;7.80;81.90
45643;DHT22;31358;46.008;11.144;2023-02-01T12:41:38;7.90;81.50
45643;DHT22;31358;46.008;11.144;2023-02-01T12:46:48;8.10;82.10
45643;DHT22;31358;46.008;11.144;2023-02-01T12:49:17;8.30;82.30
45643;DHT22;31358;46.008;11.144;2023-02-01T12:51:46;8.40;81.90
45643;DHT22;31358;46.008;11.144;2023-02-01T12:57:40;8.20;81.10
45643;DHT22;31358;46.008;11.144;2023-02-01T13:00:20;8.10;81.20
45643;DHT22;31358;46.008;11.144;2023-02-01T13:05:30;8.20;81.30
45643;DHT22;31358;46.008;11.144;2023-02-01T13:08:04;8.10;81.40
45643;DHT22;31358;46.008;11.144;2023-02-01T13:10:46;8.20;81.90
45643;DHT22;31358;46.008;11.144;2023-02-01T13:13:32;8.20;81.00
45643;DHT22;31358;46.008;11.144;2023-02-01T13:16:16;8.30;81.60
45643;DHT22;31358;46.008;11.144;2023-02-01T13:18:46;8.30;81.00
45643;DHT22;31358;46.008;11.144;2023-02-01T13:21:31;8.40;82.70
45643;DHT22;31358;46.008;11.144;2023-02-01T13:23:58;8.70;81.30
45643;DHT22;31358;46.008;11.144;2023-02-01T13:26:24;8.70;81.00
45643;DHT22;31358;46.008;11.144;2023-02-01T13:28:59;8.60;80.00
45643;DHT22;31358;46.008;11.144;2023-02-01T13:42:57;9.00;80.30
45643;DHT22;31358;46.008;11.144;2023-02-01T13:45:30;9.00;81.20
45643;DHT22;31358;46.008;11.144;2023-02-01T13:48:00;9.10;80.90
45643;DHT22;31358;46.008;11.144;2023-02-01T13:50:35;9.00;79.90
45643;DHT22;31358;46.008;11.144;2023-02-01T13:53:12;9.00;80.00
45643;DHT22;31358;46.008;11.144;2023-02-01T13:55:44;9.00;80.60
45643;DHT22;31358;46.008;11.144;2023-02-01T13:58:22;8.90;79.70
45643;DHT22;31358;46.008;11.144;2023-02-01T14:03:58;9.00;79.80
45643;DHT22;31358;46.008;11.144;2023-02-01T14:09:16;9.20;80.50
45643;DHT22;31358;46.008;11.144;2023-02-01T14:11:54;9.30;80.30
45643;DHT22;31358;46.008;11.144;2023-02-01T14:21:50;8.90;80.10
45643;DHT22;31358;46.008;11.144;2023-02-01T14:24:26;9.00;79.90
45643;DHT22;31358;46.008;11.144;2023-02-01T14:26:54;9.00;80.10
45643;DHT22;31358;46.008;11.144;2023-02-01T14:29:36;9.30;81.00
45643;DHT22;31358;46.008;11.144;2023-02-01T14:32:21;9.40;80.30
45643;DHT22;31358;46.008;11.144;2023-02-01T14:44:52;9.30;79.70
45643;DHT22;31358;46.008;11.144;2023-02-01T14:50:03;9.40;79.90
45643;DHT22;31358;46.008;11.144;2023-02-01T14:55:24;9.30;80.60
45643;DHT22;31358;46.008;11.144;2023-02-01T14:57:54;9.10;80.50
45643;DHT22;31358;46.008;11.144;2023-02-01T15:00:25;9.10;80.40
45643;DHT22;31358;46.008;11.144;2023-02-01T15:02:52;9.00;80.10
45643;DHT22;31358;46.008;11.144;2023-02-01T15:05:28;9.10;80.40
45643;DHT22;31358;46.008;11.144;2023-02-01T15:08:32;9.30;81.10
45643;DHT22;31358;46.008;11.144;2023-02-01T15:11:01;9.20;81.40
45643;DHT22;31358;46.008;11.144;2023-02-01T15:13:28;9.20;80.70
45643;DHT22;31358;46.008;11.144;2023-02-01T15:16:14;9.10;80.90
45643;DHT22;31358;46.008;11.144;2023-02-01T15:18:40;9.10;80.20
45643;DHT22;31358;46.008;11.144;2023-02-01T15:21:15;8.90;80.70
45643;DHT22;31358;46.008;11.144;2023-02-01T15:23:40;9.00;80.00
45643;DHT22;31358;46.008;11.144;2023-02-01T15:26:06;9.10;81.00
45643;DHT22;31358;46.008;11.144;2023-02-01T15:28:32;9.00;82.70
45643;DHT22;31358;46.008;11.144;2023-02-01T15:31:00;9.00;82.30
45643;DHT22;31358;46.008;11.144;2023-02-01T15:33:27;9.00;82.30
45643;DHT22;31358;46.008;11.144;2023-02-01T15:36:09;8.80;81.70
45643;DHT22;31358;46.008;11.144;2023-02-01T15:38:41;8.70;81.90
45643;DHT22;31358;46.008;11.144;2023-02-01T15:43:42;8.50;80.70
45643;DHT22;31358;46.008;11.144;2023-02-01T15:46:13;8.30;80.70
45643;DHT22;31358;46.008;11.144;2023-02-01T15:48:49;8.10;81.20
45643;DHT22;31358;46.008;11.144;2023-02-01T15:51:21;8.00;80.80
45643;DHT22;31358;46.008;11.144;2023-02-01T15:53:54;7.90;80.90
45643;DHT22;31358;46.008;11.144;2023-02-01T15:56:26;7.90;81.30
45643;DHT22;31358;46.008;11.144;2023-02-01T15:58:58;7.80;82.30
45643;DHT22;31358;46.008;11.144;2023-02-01T16:01:24;7.80;81.40
45643;DHT22;31358;46.008;11.144;2023-02-01T16:06:31;7.80;80.80
45643;DHT22;31358;46.008;11.144;2023-02-01T16:11:30;7.70;81.10
45643;DHT22;31358;46.008;11.144;2023-02-01T16:13:57;7.70;80.70
45643;DHT22;31358;46.008;11.144;2023-02-01T16:16:25;7.80;80.50
45643;DHT22;31358;46.008;11.144;2023-02-01T16:18:51;7.80;80.60
45643;DHT22;31358;46.008;11.144;2023-02-01T16:21:16;7.80;80.70
45643;DHT22;31358;46.008;11.144;2023-02-01T16:23:42;7.60;81.80
45643;DHT22;31358;46.008;11.144;2023-02-01T16:26:07;7.40;81.80
45643;DHT22;31358;46.008;11.144;2023-02-01T16:28:33;7.20;82.60
45643;DHT22;31358;46.008;11.144;2023-02-01T16:31:00;7.10;83.40
45643;DHT22;31358;46.008;11.144;2023-02-01T16:33:26;6.80;84.20
45643;DHT22;31358;46.008;11.144;2023-02-01T16:35:52;6.80;83.80
45643;DHT22;31358;46.008;11.144;2023-02-01T16:38:21;7.10;82.20
45643;DHT22;31358;46.008;11.144;2023-02-01T16:40:49;7.10;82.80
45643;DHT22;31358;46.008;11.144;2023-02-01T16:45:43;6.90;83.20
45643;DHT22;31358;46.008;11.144;2023-02-01T16:48:34;6.80;83.10
45643;DHT22;31358;46.008;11.144;2023-02-01T16:51:08;6.90;83.20
45643;DHT22;31358;46.008;11.144;2023-02-01T16:53:34;6.70;83.50
45643;DHT22;31358;46.008;11.144;2023-02-01T16:56:00;6.70;83.60
45643;DHT22;31358;46.008;11.144;2023-02-01T16:58:28;6.70;83.60
45643;DHT22;31358;46.008;11.144;2023-02-01T17:00:54;6.60;83.60
45643;DHT22;31358;46.008;11.144;2023-02-01T17:03:20;6.50;83.80
45643;DHT22;31358;46.008;11.144;2023-02-01T17:05:52;6.70;83.20
45643;DHT22;31358;46.008;11.144;2023-02-01T17:08:26;6.70;83.10
45643;DHT22;31358;46.008;11.144;2023-02-01T17:10:52;6.60;83.60
45643;DHT22;31358;46.008;11.144;2023-02-01T17:13:18;6.70;83.30
45643;DHT22;31358;46.008;11.144;2023-02-01T17:15:56;6.70;83.30
45643;DHT22;31358;46.008;11.144;2023-02-01T17:18:22;6.60;83.60
45643;DHT22;31358;46.008;11.144;2023-02-01T17:20:50;6.70;83.80
45643;DHT22;31358;46.008;11.144;2023-02-01T17:23:18;6.40;84.10
45643;DHT22;31358;46.008;11.144;2023-02-01T17:25:44;6.70;83.40
45643;DHT22;31358;46.008;11.144;2023-02-01T17:28:10;6.80;83.10
45643;DHT22;31358;46.008;11.144;2023-02-01T17:30:37;6.70;83.10
45643;DHT22;31358;46.008;11.144;2023-02-01T17:33:03;6.50;84.00
45643;DHT22;31358;46.008;11.144;2023-02-01T17:35:29;6.30;84.10
45643;DHT22;31358;46.008;11.144;2023-02-01T17:37:56;6.20;84.50
45643;DHT22;31358;46.008;11.144;2023-02-01T17:40:22;6.30;84.50
45643;DHT22;31358;46.008;11.144;2023-02-01T17:42:49;6.60;83.80
45643;DHT22;31358;46.008;11.144;2023-02-01T17:45:36;6.30;84.40
45643;DHT22;31358;46.008;11.144;2023-02-01T17:48:04;6.20;84.70
45643;DHT22;31358;46.008;11.144;2023-02-01T17:50:31;6.10;84.60
45643;DHT22;31358;46.008;11.144;2023-02-01T17:52:57;6.20;84.70
45643;DHT22;31358;46.008;11.144;2023-02-01T17:55:24;6.10;85.00
45643;DHT22;31358;46.008;11.144;2023-02-01T17:57:50;6.00;85.00
45643;DHT22;31358;46.008;11.144;2023-02-01T18:00:17;6.10;84.60
45643;DHT22;31358;46.008;11.144;2023-02-01T18:02:43;6.10;85.00
45643;DHT22;31358;46.008;11.144;2023-02-01T18:05:18;6.20;85.40
45643;DHT22;31358;46.008;11.144;2023-02-01T18:07:45;6.10;85.30
45643;DHT22;31358;46.008;11.144;2023-02-01T18:10:10;6.00;85.40
45643;DHT22;31358;46.008;11.144;2023-02-01T18:12:37;6.00;85.00
45643;DHT22;31358;46.008;11.144;2023-02-01T18:15:18;6.10;85.40
45643;DHT22;31358;46.008;11.144;2023-02-01T18:17:44;6.30;84.70
45643;DHT22;31358;46.008;11.144;2023-02-01T18:20:14;6.10;84.80